sensor_id;sensor_type;location;lat;lon;timestamp;temperature;humidity
831;DHT22;397;50.564;7.272;2023-04-20T00:01:54;7.20;99.90
831;DHT22;397;50.564;7.272;2023-04-20T00:04:23;7.10;99.90
831;DHT22;397;50.564;7.272;2023-04-20T00:06:51;7.20;99.90
831;DHT22;397;50.564;7.272;2023-04-20T00:09:19;7.30;99.90
831;DHT22;397;50.564;7.272;2023-04-20T00:11:47;7.30;99.90
831;DHT22;397;50.564;7.272;2023-04-20T00:14:14;7.20;99.90
831;DHT22;397;50.564;7.272;2023-04-20T00:16:42;7.20;99.90
831;DHT22;397;50.564;7.272;2023-04-20T00:19:10;7.20;99.90
831;DHT22;397;50.564;7.272;2023-04-20T00:21:38;7.20;99.90
831;DHT22;397;50.564;7.272;2023-04-20T00:24:06;7.20;99.90
831;DHT22;397;50.564;7.272;2023-04-20T00:26:33;7.30;99.90
831;DHT22;397;50.564;7.272;2023-04-20T00:29:01;7.30;99.90
831;DHT22;397;50.564;7.272;2023-04-20T00:31:30;7.40;99.90
831;DHT22;397;50.564;7.272;2023-04-20T00:33:58;7.40;99.90
831;DHT22;397;50.564;7.272;2023-04-20T00:36:26;7.20;99.90
831;DHT22;397;50.564;7.272;2023-04-20T00:38:53;7.20;99.90
831;DHT22;397;50.564;7.272;2023-04-20T00:41:21;7.30;99.90
831;DHT22;397;50.564;7.272;2023-04-20T00:43:50;7.20;99.90
831;DHT22;397;50.564;7.272;2023-04-20T00:46:19;7.10;99.90
831;DHT22;397;50.564;7.272;2023-04-20T00:48:48;7.10;99.90
831;DHT22;397;50.564;7.272;2023-04-20T00:51:18;7.00;99.90
831;DHT22;397;50.564;7.272;2023-04-20T00:53:46;7.10;99.90
831;DHT22;397;50.564;7.272;2023-04-20T00:56:14;7.20;99.90
831;DHT22;397;50.564;7.272;2023-04-20T00:58:42;7.20;99.90
831;DHT22;397;50.564;7.272;2023-04-20T01:01:10;7.20;99.90
831;DHT22;397;50.564;7.272;2023-04-20T01:03:38;7.20;99.90
831;DHT22;397;50.564;7.272;2023-04-20T01:06:06;7.10;99.90
831;DHT22;397;50.564;7.272;2023-04-20T01:08:35;7.10;99.90
831;DHT22;397;50.564;7.272;2023-04-20T01:11:02;7.10;99.90
831;DHT22;397;50.564;7.272;2023-04-20T01:13:30;7.10;99.90
831;DHT22;397;50.564;7.272;2023-04-20T01:15:58;7.10;99.90
831;DHT22;397;50.564;7.272;2023-04-20T01:18:26;7.10;99.90
831;DHT22;397;50.564;7.272;2023-04-20T01:20:54;7.10;99.90
831;DHT22;397;50.564;7.272;2023-04-20T01:23:21;7.10;99.90
831;DHT22;397;50.564;7.272;2023-04-20T01:25:49;7.10;99.90
831;DHT22;397;50.564;7.272;2023-04-20T01:28:16;7.10;99.90
831;DHT22;397;50.564;7.272;2023-04-20T01:30:44;7.30;99.90
831;DHT22;397;50.564;7.272;2023-04-20T01:33:11;7.30;99.90
831;DHT22;397;50.564;7.272;2023-04-20T01:35:40;7.30;99.90
831;DHT22;397;50.564;7.272;2023-04-20T01:38:09;7.40;99.90
831;DHT22;397;50.564;7.272;2023-04-20T01:40:38;7.30;99.90
831;DHT22;397;50.564;7.272;2023-04-20T01:43:05;7.40;99.90
831;DHT22;397;50.564;7.272;2023-04-20T01:45:33;7.50;99.90
831;DHT22;397;50.564;7.272;2023-04-20T01:48:01;7.50;99.90
831;DHT22;397;50.564;7.272;2023-04-20T01:50:28;7.60;99.90
831;DHT22;397;50.564;7.272;2023-04-20T01:52:56;7.50;99.90
831;DHT22;397;50.564;7.272;2023-04-20T01:55:23;7.50;99.90
831;DHT22;397;50.564;7.272;2023-04-20T01:57:51;7.40;99.90
831;DHT22;397;50.564;7.272;2023-04-20T02:00:19;7.40;99.90
831;DHT22;397;50.564;7.272;2023-04-20T02:02:46;7.30;99.90
831;DHT22;397;50.564;7.272;2023-04-20T02:05:14;7.30;99.90
831;DHT22;397;50.564;7.272;2023-04-20T02:07:41;7.40;99.90
831;DHT22;397;50.564;7.272;2023-04-20T02:10:09;7.40;99.90
831;DHT22;397;50.564;7.272;2023-04-20T02:12:37;7.40;99.90
831;DHT22;397;50.564;7.272;2023-04-20T02:15:05;7.50;99.90
831;DHT22;397;50.564;7.272;2023-04-20T02:17:34;7.30;99.90
831;DHT22;397;50.564;7.272;2023-04-20T02:20:03;7.40;99.90
831;DHT22;397;50.564;7.272;2023-04-20T02:22:36;7.40;99.90
831;DHT22;397;50.564;7.272;2023-04-20T02:25:04;7.40;99.90
831;DHT22;397;50.564;7.272;2023-04-20T02:27:32;7.50;99.90
831;DHT22;397;50.564;7.272;2023-04-20T02:29:59;7.50;99.90
831;DHT22;397;50.564;7.272;2023-04-20T02:32:27;7.40;99.90
831;DHT22;397;50.564;7.272;2023-04-20T02:34:54;7.20;99.90
831;DHT22;397;50.564;7.272;2023-04-20T02:37:22;7.30;99.90
831;DHT22;397;50.564;7.272;2023-04-20T02:39:49;7.30;99.90
831;DHT22;397;50.564;7.272;2023-04-20T02:42:17;7.30;99.90
831;DHT22;397;50.564;7.272;2023-04-20T02:44:44;7.30;99.90
831;DHT22;397;50.564;7.272;2023-04-20T02:47:12;7.30;99.90
831;DHT22;397;50.564;7.272;2023-04-20T02:49:39;7.50;99.90
831;DHT22;397;50.564;7.272;2023-04-20T02:52:07;7.50;99.90
831;DHT22;397;50.564;7.272;2023-04-20T02:54:34;7.40;99.90
831;DHT22;397;50.564;7.272;2023-04-20T02:57:02;7.50;99.90
831;DHT22;397;50.564;7.272;2023-04-20T02:59:29;7.60;99.90
831;DHT22;397;50.564;7.272;2023-04-20T03:01:57;7.60;99.90
831;DHT22;397;50.564;7.272;2023-04-20T03:04:24;7.60;99.90
831;DHT22;397;50.564;7.272;2023-04-20T03:06:53;7.60;99.90
831;DHT22;397;50.564;7.272;2023-04-20T03:09:20;7.70;99.90
831;DHT22;397;50.564;7.272;2023-04-20T03:11:48;7.80;99.90
831;DHT22;397;50.564;7.272;2023-04-20T03:14:16;7.80;99.90
831;DHT22;397;50.564;7.272;2023-04-20T03:16:44;7.70;99.90
831;DHT22;397;50.564;7.272;2023-04-20T03:19:11;7.80;99.90
831;DHT22;397;50.564;7.272;2023-04-20T03:21:39;7.70;99.90
831;DHT22;397;50.564;7.272;2023-04-20T03:24:06;7.60;99.90
831;DHT22;397;50.564;7.272;2023-04-20T03:26:34;7.60;99.90
831;DHT22;397;50.564;7.272;2023-04-20T03:29:02;7.50;99.90
831;DHT22;397;50.564;7.272;2023-04-20T03:31:29;7.50;99.90
831;DHT22;397;50.564;7.272;2023-04-20T03:33:57;7.40;99.90
831;DHT22;397;50.564;7.272;2023-04-20T03:36:24;7.30;99.90
831;DHT22;397;50.564;7.272;2023-04-20T03:38:53;7.20;99.90
831;DHT22;397;50.564;7.272;2023-04-20T03:41:21;7.30;99.90
831;DHT22;397;50.564;7.272;2023-04-20T03:43:48;7.30;99.90
831;DHT22;397;50.564;7.272;2023-04-20T03:46:16;7.20;99.90
831;DHT22;397;50.564;7.272;2023-04-20T03:48:43;7.20;99.90
831;DHT22;397;50.564;7.272;2023-04-20T03:51:11;7.10;99.90
831;DHT22;397;50.564;7.272;2023-04-20T03:53:39;7.20;99.90
831;DHT22;397;50.564;7.272;2023-04-20T03:56:07;7.30;99.90
831;DHT22;397;50.564;7.272;2023-04-20T03:58:34;7.10;99.90
831;DHT22;397;50.564;7.272;2023-04-20T04:01:03;7.30;99.90
831;DHT22;397;50.564;7.272;2023-04-20T04:03:33;7.40;99.90
831;DHT22;397;50.564;7.272;2023-04-20T04:06:00;7.40;99.90
831;DHT22;397;50.564;7.272;2023-04-20T04:08:28;7.50;99.90
831;DHT22;397;50.564;7.272;2023-04-20T04:10:55;7.50;99.90
831;DHT22;397;50.564;7.272;2023-04-20T04:13:23;7.40;99.90
831;DHT22;397;50.564;7.272;2023-04-20T04:15:50;7.50;99.90
831;DHT22;397;50.564;7.272;2023-04-20T04:18:19;7.50;99.90
831;DHT22;397;50.564;7.272;2023-04-20T04:20:47;7.50;99.90
831;DHT22;397;50.564;7.272;2023-04-20T04:23:15;7.50;99.90
831;DHT22;397;50.564;7.272;2023-04-20T04:25:42;7.40;99.90
831;DHT22;397;50.564;7.272;2023-04-20T04:28:10;7.40;99.90
831;DHT22;397;50.564;7.272;2023-04-20T04:30:38;7.40;99.90
831;DHT22;397;50.564;7.272;2023-04-20T04:33:05;7.10;99.90
831;DHT22;397;50.564;7.272;2023-04-20T04:35:33;7.00;99.90
831;DHT22;397;50.564;7.272;2023-04-20T04:38:01;6.90;99.90
831;DHT22;397;50.564;7.272;2023-04-20T04:40:29;7.10;99.90
831;DHT22;397;50.564;7.272;2023-04-20T04:42:58;7.00;99.90
831;DHT22;397;50.564;7.272;2023-04-20T04:45:26;7.00;99.90
831;DHT22;397;50.564;7.272;2023-04-20T04:47:54;7.20;99.90
831;DHT22;397;50.564;7.272;2023-04-20T04:50:22;7.30;99.90
831;DHT22;397;50.564;7.272;2023-04-20T04:52:49;7.30;99.90
831;DHT22;397;50.564;7.272;2023-04-20T04:55:17;7.40;99.90
831;DHT22;397;50.564;7.272;2023-04-20T04:57:44;7.30;99.90
831;DHT22;397;50.564;7.272;2023-04-20T05:00:13;7.30;99.90
831;DHT22;397;50.564;7.272;2023-04-20T05:02:41;7.40;99.90
831;DHT22;397;50.564;7.272;2023-04-20T05:05:08;7.40;99.90
831;DHT22;397;50.564;7.272;2023-04-20T05:07:36;7.40;99.90
831;DHT22;397;50.564;7.272;2023-04-20T05:10:06;7.40;99.90
831;DHT22;397;50.564;7.272;2023-04-20T05:12:34;7.50;99.90
831;DHT22;397;50.564;7.272;2023-04-20T05:15:02;7.40;99.90
831;DHT22;397;50.564;7.272;2023-04-20T05:17:30;7.40;99.90
831;DHT22;397;50.564;7.272;2023-04-20T05:19:57;7.40;99.90
831;DHT22;397;50.564;7.272;2023-04-20T05:22:25;7.30;99.90
831;DHT22;397;50.564;7.272;2023-04-20T05:24:52;7.30;99.90
831;DHT22;397;50.564;7.272;2023-04-20T05:27:20;7.40;99.90
831;DHT22;397;50.564;7.272;2023-04-20T05:29:47;7.00;99.90
831;DHT22;397;50.564;7.272;2023-04-20T05:32:15;6.80;99.90
831;DHT22;397;50.564;7.272;2023-04-20T05:34:42;6.90;99.90
831;DHT22;397;50.564;7.272;2023-04-20T05:37:10;7.00;99.90
831;DHT22;397;50.564;7.272;2023-04-20T05:39:38;6.90;99.90
831;DHT22;397;50.564;7.272;2023-04-20T05:42:06;7.00;99.90
831;DHT22;397;50.564;7.272;2023-04-20T05:44:33;7.20;99.90
831;DHT22;397;50.564;7.272;2023-04-20T05:47:02;7.20;99.90
831;DHT22;397;50.564;7.272;2023-04-20T05:49:34;7.30;99.90
831;DHT22;397;50.564;7.272;2023-04-20T05:52:02;7.40;99.90
831;DHT22;397;50.564;7.272;2023-04-20T05:54:31;7.50;99.90
831;DHT22;397;50.564;7.272;2023-04-20T05:56:59;7.60;99.90
831;DHT22;397;50.564;7.272;2023-04-20T05:59:26;7.70;99.90
831;DHT22;397;50.564;7.272;2023-04-20T06:01:54;7.50;99.90
831;DHT22;397;50.564;7.272;2023-04-20T06:04:21;7.30;99.90
831;DHT22;397;50.564;7.272;2023-04-20T06:06:49;7.30;99.90
831;DHT22;397;50.564;7.272;2023-04-20T06:09:17;7.10;99.90
831;DHT22;397;50.564;7.272;2023-04-20T06:11:45;6.90;99.90
831;DHT22;397;50.564;7.272;2023-04-20T06:14:12;6.80;99.90
831;DHT22;397;50.564;7.272;2023-04-20T06:16:40;7.10;99.90
831;DHT22;397;50.564;7.272;2023-04-20T06:19:07;7.20;99.90
831;DHT22;397;50.564;7.272;2023-04-20T06:21:35;7.30;99.90
831;DHT22;397;50.564;7.272;2023-04-20T06:24:03;7.30;99.90
831;DHT22;397;50.564;7.272;2023-04-20T06:26:31;7.50;99.90
831;DHT22;397;50.564;7.272;2023-04-20T06:28:58;7.60;99.90
831;DHT22;397;50.564;7.272;2023-04-20T06:31:26;7.80;99.90
831;DHT22;397;50.564;7.272;2023-04-20T06:33:53;7.70;99.90
831;DHT22;397;50.564;7.272;2023-04-20T06:36:21;7.80;99.90
831;DHT22;397;50.564;7.272;2023-04-20T06:38:49;7.60;99.90
831;DHT22;397;50.564;7.272;2023-04-20T06:41:17;7.80;99.90
831;DHT22;397;50.564;7.272;2023-04-20T06:43:44;8.10;99.90
831;DHT22;397;50.564;7.272;2023-04-20T06:46:12;8.10;99.90
831;DHT22;397;50.564;7.272;2023-04-20T06:48:39;8.20;99.90
831;DHT22;397;50.564;7.272;2023-04-20T06:51:07;8.40;99.90
831;DHT22;397;50.564;7.272;2023-04-20T06:53:34;8.60;99.90
831;DHT22;397;50.564;7.272;2023-04-20T06:56:02;8.70;99.90
831;DHT22;397;50.564;7.272;2023-04-20T06:58:29;8.70;99.90
831;DHT22;397;50.564;7.272;2023-04-20T07:00:57;8.90;99.90
831;DHT22;397;50.564;7.272;2023-04-20T07:03:24;9.00;99.90
831;DHT22;397;50.564;7.272;2023-04-20T07:05:52;9.10;99.90
831;DHT22;397;50.564;7.272;2023-04-20T07:08:39;9.00;99.90
831;DHT22;397;50.564;7.272;2023-04-20T07:11:06;9.00;99.90
831;DHT22;397;50.564;7.272;2023-04-20T07:13:34;9.00;99.90
831;DHT22;397;50.564;7.272;2023-04-20T07:16:01;8.90;99.90
831;DHT22;397;50.564;7.272;2023-04-20T07:18:29;8.70;99.90
831;DHT22;397;50.564;7.272;2023-04-20T07:20:56;8.30;99.90
831;DHT22;397;50.564;7.272;2023-04-20T07:23:24;8.10;99.90
831;DHT22;397;50.564;7.272;2023-04-20T07:25:51;8.20;99.90
831;DHT22;397;50.564;7.272;2023-04-20T07:28:19;8.30;99.90
831;DHT22;397;50.564;7.272;2023-04-20T07:30:47;8.10;99.90
831;DHT22;397;50.564;7.272;2023-04-20T07:33:14;8.00;99.90
831;DHT22;397;50.564;7.272;2023-04-20T07:35:42;7.70;99.90
831;DHT22;397;50.564;7.272;2023-04-20T07:38:10;7.40;99.90
831;DHT22;397;50.564;7.272;2023-04-20T07:40:37;7.50;99.90
831;DHT22;397;50.564;7.272;2023-04-20T07:43:04;7.40;99.90
831;DHT22;397;50.564;7.272;2023-04-20T07:45:33;7.50;99.90
831;DHT22;397;50.564;7.272;2023-04-20T07:48:01;7.50;99.90
831;DHT22;397;50.564;7.272;2023-04-20T07:50:30;7.50;99.90
831;DHT22;397;50.564;7.272;2023-04-20T07:52:57;7.70;99.90
831;DHT22;397;50.564;7.272;2023-04-20T07:55:25;8.00;99.90
831;DHT22;397;50.564;7.272;2023-04-20T07:57:53;8.50;99.90
831;DHT22;397;50.564;7.272;2023-04-20T08:00:20;8.40;99.90
831;DHT22;397;50.564;7.272;2023-04-20T08:02:48;8.60;99.90
831;DHT22;397;50.564;7.272;2023-04-20T08:05:15;8.70;99.90
831;DHT22;397;50.564;7.272;2023-04-20T08:07:43;9.10;99.90
831;DHT22;397;50.564;7.272;2023-04-20T08:10:10;8.90;99.90
831;DHT22;397;50.564;7.272;2023-04-20T08:12:39;9.20;99.90
831;DHT22;397;50.564;7.272;2023-04-20T08:15:07;9.20;99.90
831;DHT22;397;50.564;7.272;2023-04-20T08:17:34;8.70;99.90
831;DHT22;397;50.564;7.272;2023-04-20T08:20:02;8.40;99.90
831;DHT22;397;50.564;7.272;2023-04-20T08:22:31;8.30;99.90
831;DHT22;397;50.564;7.272;2023-04-20T08:24:59;8.60;99.90
831;DHT22;397;50.564;7.272;2023-04-20T08:27:26;8.40;99.90
831;DHT22;397;50.564;7.272;2023-04-20T08:29:56;8.40;99.90
831;DHT22;397;50.564;7.272;2023-04-20T08:32:23;8.40;99.90
831;DHT22;397;50.564;7.272;2023-04-20T08:34:52;8.60;99.90
831;DHT22;397;50.564;7.272;2023-04-20T08:37:19;9.30;99.90
831;DHT22;397;50.564;7.272;2023-04-20T08:39:47;9.00;99.90
831;DHT22;397;50.564;7.272;2023-04-20T08:42:14;8.60;99.90
831;DHT22;397;50.564;7.272;2023-04-20T08:44:42;8.30;99.90
831;DHT22;397;50.564;7.272;2023-04-20T08:47:10;8.20;99.90
831;DHT22;397;50.564;7.272;2023-04-20T08:49:38;8.10;99.90
831;DHT22;397;50.564;7.272;2023-04-20T08:52:06;8.00;99.90
831;DHT22;397;50.564;7.272;2023-04-20T08:54:36;8.20;99.90
831;DHT22;397;50.564;7.272;2023-04-20T08:57:04;8.10;99.90
831;DHT22;397;50.564;7.272;2023-04-20T08:59:32;8.20;99.90
831;DHT22;397;50.564;7.272;2023-04-20T09:02:10;8.00;99.90
831;DHT22;397;50.564;7.272;2023-04-20T09:04:39;8.30;99.90
831;DHT22;397;50.564;7.272;2023-04-20T09:07:19;8.20;99.90
831;DHT22;397;50.564;7.272;2023-04-20T09:09:57;8.00;99.90
831;DHT22;397;50.564;7.272;2023-04-20T09:12:25;8.50;99.90
831;DHT22;397;50.564;7.272;2023-04-20T09:14:53;8.70;99.90
831;DHT22;397;50.564;7.272;2023-04-20T09:17:33;8.80;99.90
831;DHT22;397;50.564;7.272;2023-04-20T09:20:01;8.20;99.90
831;DHT22;397;50.564;7.272;2023-04-20T09:22:35;7.70;99.90
831;DHT22;397;50.564;7.272;2023-04-20T09:25:13;7.60;99.90
831;DHT22;397;50.564;7.272;2023-04-20T09:27:41;7.70;99.90
831;DHT22;397;50.564;7.272;2023-04-20T09:30:09;7.90;99.90
831;DHT22;397;50.564;7.272;2023-04-20T09:32:37;8.00;99.90
831;DHT22;397;50.564;7.272;2023-04-20T09:35:05;7.90;99.90
831;DHT22;397;50.564;7.272;2023-04-20T09:37:33;7.90;99.90
831;DHT22;397;50.564;7.272;2023-04-20T09:40:02;8.10;99.90
831;DHT22;397;50.564;7.272;2023-04-20T09:42:32;8.30;99.90
831;DHT22;397;50.564;7.272;2023-04-20T09:45:01;8.70;99.90
831;DHT22;397;50.564;7.272;2023-04-20T09:47:29;9.30;99.90
831;DHT22;397;50.564;7.272;2023-04-20T09:49:57;9.80;99.90
831;DHT22;397;50.564;7.272;2023-04-20T09:52:25;10.00;99.90
831;DHT22;397;50.564;7.272;2023-04-20T09:54:54;10.20;99.90
831;DHT22;397;50.564;7.272;2023-04-20T09:57:22;10.50;99.90
831;DHT22;397;50.564;7.272;2023-04-20T09:59:53;10.70;99.90
831;DHT22;397;50.564;7.272;2023-04-20T10:02:22;10.40;99.90
831;DHT22;397;50.564;7.272;2023-04-20T10:04:54;10.60;99.90
831;DHT22;397;50.564;7.272;2023-04-20T10:07:28;10.80;99.90
831;DHT22;397;50.564;7.272;2023-04-20T10:10:08;10.50;99.90
831;DHT22;397;50.564;7.272;2023-04-20T10:12:45;10.30;99.90
831;DHT22;397;50.564;7.272;2023-04-20T10:15:03;10.10;99.90
831;DHT22;397;50.564;7.272;2023-04-20T10:17:31;9.80;99.90
831;DHT22;397;50.564;7.272;2023-04-20T10:19:59;9.30;99.90
831;DHT22;397;50.564;7.272;2023-04-20T10:22:28;9.40;99.90
831;DHT22;397;50.564;7.272;2023-04-20T10:25:00;9.20;99.90
831;DHT22;397;50.564;7.272;2023-04-20T10:27:28;9.20;99.90
831;DHT22;397;50.564;7.272;2023-04-20T10:30:11;9.30;99.90
831;DHT22;397;50.564;7.272;2023-04-20T10:32:39;9.40;99.90
831;DHT22;397;50.564;7.272;2023-04-20T10:35:09;9.40;99.90
831;DHT22;397;50.564;7.272;2023-04-20T10:37:47;9.70;99.90
831;DHT22;397;50.564;7.272;2023-04-20T10:40:16;9.90;99.90
831;DHT22;397;50.564;7.272;2023-04-20T10:42:45;10.30;99.90
831;DHT22;397;50.564;7.272;2023-04-20T10:45:13;10.50;99.90
831;DHT22;397;50.564;7.272;2023-04-20T10:47:41;10.60;99.90
831;DHT22;397;50.564;7.272;2023-04-20T10:50:14;10.50;99.90
831;DHT22;397;50.564;7.272;2023-04-20T10:52:42;10.50;99.90
831;DHT22;397;50.564;7.272;2023-04-20T10:55:24;10.50;99.90
831;DHT22;397;50.564;7.272;2023-04-20T10:57:52;10.60;99.90
831;DHT22;397;50.564;7.272;2023-04-20T11:00:25;10.50;99.90
831;DHT22;397;50.564;7.272;2023-04-20T11:02:59;10.50;99.90
831;DHT22;397;50.564;7.272;2023-04-20T11:05:25;10.60;99.90
831;DHT22;397;50.564;7.272;2023-04-20T11:07:55;10.70;99.90
831;DHT22;397;50.564;7.272;2023-04-20T11:10:36;10.90;99.90
831;DHT22;397;50.564;7.272;2023-04-20T11:12:53;11.00;99.90
831;DHT22;397;50.564;7.272;2023-04-20T11:15:29;10.90;99.90
831;DHT22;397;50.564;7.272;2023-04-20T11:17:51;10.90;99.90
831;DHT22;397;50.564;7.272;2023-04-20T11:20:19;11.20;99.90
831;DHT22;397;50.564;7.272;2023-04-20T11:22:55;11.30;99.90
831;DHT22;397;50.564;7.272;2023-04-20T11:25:17;11.30;99.90
831;DHT22;397;50.564;7.272;2023-04-20T11:27:45;11.20;99.90
831;DHT22;397;50.564;7.272;2023-04-20T11:30:12;11.10;99.90
831;DHT22;397;50.564;7.272;2023-04-20T11:32:40;11.00;99.90
831;DHT22;397;50.564;7.272;2023-04-20T11:35:08;10.90;99.90
831;DHT22;397;50.564;7.272;2023-04-20T11:37:48;10.70;99.90
831;DHT22;397;50.564;7.272;2023-04-20T11:40:17;10.90;99.90
831;DHT22;397;50.564;7.272;2023-04-20T11:42:45;11.00;99.90
831;DHT22;397;50.564;7.272;2023-04-20T11:45:13;11.20;99.90
831;DHT22;397;50.564;7.272;2023-04-20T11:47:41;11.30;99.90
831;DHT22;397;50.564;7.272;2023-04-20T11:50:09;11.60;99.90
831;DHT22;397;50.564;7.272;2023-04-20T11:52:37;11.70;99.90
831;DHT22;397;50.564;7.272;2023-04-20T11:55:05;12.00;99.90
831;DHT22;397;50.564;7.272;2023-04-20T11:57:33;12.10;99.90
831;DHT22;397;50.564;7.272;2023-04-20T12:00:01;12.30;99.90
831;DHT22;397;50.564;7.272;2023-04-20T12:02:29;12.50;99.90
831;DHT22;397;50.564;7.272;2023-04-20T12:04:57;12.50;99.90
831;DHT22;397;50.564;7.272;2023-04-20T12:07:26;12.10;99.90
831;DHT22;397;50.564;7.272;2023-04-20T12:09:54;12.20;99.90
831;DHT22;397;50.564;7.272;2023-04-20T12:12:21;12.50;99.90
831;DHT22;397;50.564;7.272;2023-04-20T12:14:49;12.10;99.90
831;DHT22;397;50.564;7.272;2023-04-20T12:17:16;11.40;99.90
831;DHT22;397;50.564;7.272;2023-04-20T12:19:44;11.20;99.90
831;DHT22;397;50.564;7.272;2023-04-20T12:22:11;11.20;99.90
831;DHT22;397;50.564;7.272;2023-04-20T12:24:39;11.50;99.90
831;DHT22;397;50.564;7.272;2023-04-20T12:27:06;11.20;99.90
831;DHT22;397;50.564;7.272;2023-04-20T12:29:34;10.80;99.90
831;DHT22;397;50.564;7.272;2023-04-20T12:32:01;10.90;99.90
831;DHT22;397;50.564;7.272;2023-04-20T12:34:29;11.20;99.90
831;DHT22;397;50.564;7.272;2023-04-20T12:36:56;11.30;99.90
831;DHT22;397;50.564;7.272;2023-04-20T12:39:24;11.10;99.90
831;DHT22;397;50.564;7.272;2023-04-20T12:41:51;10.90;99.90
831;DHT22;397;50.564;7.272;2023-04-20T12:44:19;10.70;99.90
831;DHT22;397;50.564;7.272;2023-04-20T12:46:46;10.70;99.90
831;DHT22;397;50.564;7.272;2023-04-20T12:49:14;10.90;99.90
831;DHT22;397;50.564;7.272;2023-04-20T12:51:41;10.70;99.90
831;DHT22;397;50.564;7.272;2023-04-20T12:54:09;10.60;99.90
831;DHT22;397;50.564;7.272;2023-04-20T12:56:37;10.70;99.90
831;DHT22;397;50.564;7.272;2023-04-20T12:59:04;10.90;99.90
831;DHT22;397;50.564;7.272;2023-04-20T13:01:32;11.20;99.90
831;DHT22;397;50.564;7.272;2023-04-20T13:03:59;11.30;99.90
831;DHT22;397;50.564;7.272;2023-04-20T13:06:27;11.20;99.90
831;DHT22;397;50.564;7.272;2023-04-20T13:09:02;11.10;99.90
831;DHT22;397;50.564;7.272;2023-04-20T13:11:28;11.20;99.90
831;DHT22;397;50.564;7.272;2023-04-20T13:13:56;11.40;99.90
831;DHT22;397;50.564;7.272;2023-04-20T13:16:23;11.60;99.90
831;DHT22;397;50.564;7.272;2023-04-20T13:18:51;11.80;99.90
831;DHT22;397;50.564;7.272;2023-04-20T13:21:18;12.10;99.90
831;DHT22;397;50.564;7.272;2023-04-20T13:23:46;12.30;99.90
831;DHT22;397;50.564;7.272;2023-04-20T13:26:13;12.20;99.90
831;DHT22;397;50.564;7.272;2023-04-20T13:28:41;11.60;99.90
831;DHT22;397;50.564;7.272;2023-04-20T13:31:08;11.40;99.90
831;DHT22;397;50.564;7.272;2023-04-20T13:33:37;11.30;99.90
831;DHT22;397;50.564;7.272;2023-04-20T13:36:04;11.30;99.90
831;DHT22;397;50.564;7.272;2023-04-20T13:38:32;11.50;99.90
831;DHT22;397;50.564;7.272;2023-04-20T13:41:00;11.70;99.90
831;DHT22;397;50.564;7.272;2023-04-20T13:43:27;11.90;99.90
831;DHT22;397;50.564;7.272;2023-04-20T13:45:55;11.90;99.90
831;DHT22;397;50.564;7.272;2023-04-20T13:48:23;11.70;99.90
831;DHT22;397;50.564;7.272;2023-04-20T13:50:50;11.50;99.90
831;DHT22;397;50.564;7.272;2023-04-20T13:53:19;11.60;99.90
831;DHT22;397;50.564;7.272;2023-04-20T13:55:47;11.50;99.90
831;DHT22;397;50.564;7.272;2023-04-20T13:58:15;11.60;99.90
831;DHT22;397;50.564;7.272;2023-04-20T14:00:42;11.60;99.90
831;DHT22;397;50.564;7.272;2023-04-20T14:03:10;11.60;99.90
831;DHT22;397;50.564;7.272;2023-04-20T14:05:40;11.30;99.90
831;DHT22;397;50.564;7.272;2023-04-20T14:08:09;11.10;99.90
831;DHT22;397;50.564;7.272;2023-04-20T14:10:39;11.20;99.90
831;DHT22;397;50.564;7.272;2023-04-20T14:13:08;11.30;99.90
831;DHT22;397;50.564;7.272;2023-04-20T14:15:35;11.10;99.90
831;DHT22;397;50.564;7.272;2023-04-20T14:18:03;11.10;99.90
831;DHT22;397;50.564;7.272;2023-04-20T14:20:30;11.10;99.90
831;DHT22;397;50.564;7.272;2023-04-20T14:22:58;10.90;99.90
831;DHT22;397;50.564;7.272;2023-04-20T14:25:25;10.80;99.90
831;DHT22;397;50.564;7.272;2023-04-20T14:27:53;10.70;99.90
831;DHT22;397;50.564;7.272;2023-04-20T14:30:21;10.80;99.90
831;DHT22;397;50.564;7.272;2023-04-20T14:32:59;11.00;99.90
831;DHT22;397;50.564;7.272;2023-04-20T14:35:26;11.10;99.90
831;DHT22;397;50.564;7.272;2023-04-20T14:37:53;11.40;99.90
831;DHT22;397;50.564;7.272;2023-04-20T14:40:21;11.60;99.90
831;DHT22;397;50.564;7.272;2023-04-20T14:42:49;11.70;99.90
831;DHT22;397;50.564;7.272;2023-04-20T14:45:16;11.80;99.90
831;DHT22;397;50.564;7.272;2023-04-20T14:47:44;11.90;99.90
831;DHT22;397;50.564;7.272;2023-04-20T14:50:11;11.90;99.90
831;DHT22;397;50.564;7.272;2023-04-20T14:52:39;12.10;99.90
831;DHT22;397;50.564;7.272;2023-04-20T14:55:07;12.20;99.90
831;DHT22;397;50.564;7.272;2023-04-20T14:57:34;12.30;99.90
831;DHT22;397;50.564;7.272;2023-04-20T15:00:03;12.40;99.90
831;DHT22;397;50.564;7.272;2023-04-20T15:02:31;12.40;99.90
831;DHT22;397;50.564;7.272;2023-04-20T15:04:59;12.40;99.90
831;DHT22;397;50.564;7.272;2023-04-20T15:07:27;12.30;99.90
831;DHT22;397;50.564;7.272;2023-04-20T15:09:54;12.50;99.90
831;DHT22;397;50.564;7.272;2023-04-20T15:12:22;12.60;99.90
831;DHT22;397;50.564;7.272;2023-04-20T15:14:49;12.50;99.90
831;DHT22;397;50.564;7.272;2023-04-20T15:17:17;12.40;99.90
831;DHT22;397;50.564;7.272;2023-04-20T15:19:45;12.40;99.90
831;DHT22;397;50.564;7.272;2023-04-20T15:22:13;12.30;99.90
831;DHT22;397;50.564;7.272;2023-04-20T15:24:40;12.20;99.90
831;DHT22;397;50.564;7.272;2023-04-20T15:27:08;12.00;99.90
831;DHT22;397;50.564;7.272;2023-04-20T15:29:36;11.90;99.90
831;DHT22;397;50.564;7.272;2023-04-20T15:32:04;11.90;99.90
831;DHT22;397;50.564;7.272;2023-04-20T15:34:32;12.20;99.90
831;DHT22;397;50.564;7.272;2023-04-20T15:36:59;12.10;99.90
831;DHT22;397;50.564;7.272;2023-04-20T15:39:26;12.10;99.90
831;DHT22;397;50.564;7.272;2023-04-20T15:41:54;12.20;99.90
831;DHT22;397;50.564;7.272;2023-04-20T15:44:24;12.40;99.90
831;DHT22;397;50.564;7.272;2023-04-20T15:46:51;12.30;99.90
831;DHT22;397;50.564;7.272;2023-04-20T15:49:19;12.20;99.90
831;DHT22;397;50.564;7.272;2023-04-20T15:51:46;12.10;99.90
831;DHT22;397;50.564;7.272;2023-04-20T15:54:14;11.70;99.90
831;DHT22;397;50.564;7.272;2023-04-20T15:56:41;10.70;99.90
831;DHT22;397;50.564;7.272;2023-04-20T15:59:09;10.20;99.90
831;DHT22;397;50.564;7.272;2023-04-20T16:01:36;9.90;99.90
831;DHT22;397;50.564;7.272;2023-04-20T16:04:04;9.20;99.90
831;DHT22;397;50.564;7.272;2023-04-20T16:06:31;8.70;99.90
831;DHT22;397;50.564;7.272;2023-04-20T16:09:04;8.80;99.90
831;DHT22;397;50.564;7.272;2023-04-20T16:11:30;8.90;99.90
831;DHT22;397;50.564;7.272;2023-04-20T16:13:58;8.80;99.90
831;DHT22;397;50.564;7.272;2023-04-20T16:16:26;9.00;99.90
831;DHT22;397;50.564;7.272;2023-04-20T16:18:54;9.00;99.90
831;DHT22;397;50.564;7.272;2023-04-20T16:21:21;9.00;99.90
831;DHT22;397;50.564;7.272;2023-04-20T16:23:54;8.80;99.90
831;DHT22;397;50.564;7.272;2023-04-20T16:26:23;9.00;99.90
831;DHT22;397;50.564;7.272;2023-04-20T16:28:52;9.30;99.90
831;DHT22;397;50.564;7.272;2023-04-20T16:31:20;9.40;99.90
831;DHT22;397;50.564;7.272;2023-04-20T16:33:47;9.40;99.90
831;DHT22;397;50.564;7.272;2023-04-20T16:36:15;9.50;99.90
831;DHT22;397;50.564;7.272;2023-04-20T16:38:42;9.30;99.90
831;DHT22;397;50.564;7.272;2023-04-20T16:41:10;9.30;99.90
831;DHT22;397;50.564;7.272;2023-04-20T16:43:37;9.50;99.90
831;DHT22;397;50.564;7.272;2023-04-20T16:46:13;9.60;99.90
831;DHT22;397;50.564;7.272;2023-04-20T16:48:43;9.70;99.90
831;DHT22;397;50.564;7.272;2023-04-20T16:51:10;9.80;99.90
831;DHT22;397;50.564;7.272;2023-04-20T16:53:38;9.80;99.90